Time;durP1;ratioP1;P1;durP2;ratioP2;P2;SDS_P1;SDS_P2;PMS_P1;PMS_P2;Temp;Humidity;BMP_temperature;BMP_pressure;BME280_temperature;BME280_humidity;BME280_pressure;Samples;Min_cycle;Max_cycle;Signal;HPM_P1;HPM_P2
2022/03/08 00:00:21;;;;;;;;;17.75;13.75;;;;;3.30;65.42;102354.25;5034920;28;11591;-71
2022/03/08 00:02:47;;;;;;;;;14.75;13.00;;;;;3.30;65.68;102353.41;5038026;28;11529;-70
2022/03/08 00:05:14;;;;;;;;;22.50;20.00;;;;;3.24;65.93;102352.00;5072781;28;11633;-71
2022/03/08 00:07:41;;;;;;;;;17.50;14.00;;;;;3.26;65.77;102357.25;5054927;28;11568;-70
2022/03/08 00:10:09;;;;;;;;;15.00;13.00;;;;;3.18;65.81;102348.88;5052269;28;11628;-71
2022/03/08 00:12:35;;;;;;;;;17.25;14.25;;;;;3.17;66.34;102350.69;5053679;28;11465;-70
2022/03/08 00:15:15;;;;;;;;;17.50;14.50;;;;;3.15;66.23;102362.47;5072813;28;11527;-70
2022/03/08 00:17:42;;;;;;;;;17.50;15.25;;;;;3.13;65.78;102351.84;5057464;28;11470;-71
2022/03/08 00:20:09;;;;;;;;;18.75;13.50;;;;;3.12;65.81;102352.81;5057496;28;11593;-71
2022/03/08 00:22:36;;;;;;;;;17.25;14.75;;;;;3.09;65.90;102345.88;5037039;28;11637;-70
2022/03/08 00:25:04;;;;;;;;;14.50;13.25;;;;;3.01;65.72;102340.19;5064102;28;11610;-70
2022/03/08 00:27:31;;;;;;;;;18.25;16.50;;;;;2.99;65.42;102336.75;5072561;28;11492;-69
2022/03/08 00:29:58;;;;;;;;;18.75;17.00;;;;;3.05;65.61;102327.44;5053898;28;11605;-70
2022/03/08 00:32:27;;;;;;;;;17.00;16.00;;;;;3.00;65.25;102333.13;5034968;28;11621;-69
2022/03/08 00:34:53;;;;;;;;;19.25;16.25;;;;;3.11;64.86;102328.84;5052757;28;11504;-71
2022/03/08 00:37:20;;;;;;;;;20.25;15.00;;;;;3.05;64.52;102339.00;5034446;28;11501;-70
2022/03/08 00:39:46;;;;;;;;;12.50;12.50;;;;;2.97;64.23;102332.44;5033660;28;11653;-70
2022/03/08 00:42:13;;;;;;;;;20.75;17.50;;;;;2.97;64.20;102335.97;5066341;28;11649;-71
2022/03/08 00:44:44;;;;;;;;;21.00;18.75;;;;;2.85;64.38;102333.28;5066684;28;11492;-70
2022/03/08 00:47:12;;;;;;;;;20.00;16.00;;;;;2.88;64.46;102325.91;5061167;28;11475;-70
2022/03/08 00:49:39;;;;;;;;;21.25;16.00;;;;;2.88;64.29;102327.72;5039338;28;11616;-69
2022/03/08 00:52:07;;;;;;;;;12.00;10.00;;;;;2.95;64.25;102319.16;5075615;28;11508;-70
2022/03/08 00:54:34;;;;;;;;;21.50;15.50;;;;;2.88;64.17;102325.91;5063375;28;11511;-71
2022/03/08 00:57:00;;;;;;;;;22.50;18.50;;;;;2.92;63.80;102311.34;5045549;28;11479;-69
2022/03/08 00:59:27;;;;;;;;;23.50;18.50;;;;;2.93;63.62;102312.22;5065955;28;11592;-69
2022/03/08 01:01:53;;;;;;;;;20.75;19.00;;;;;2.92;63.28;102313.19;5057783;28;11504;-71
2022/03/08 01:04:20;;;;;;;;;20.00;16.00;;;;;2.89;63.92;102313.38;5052555;28;11504;-73
2022/03/08 01:06:47;;;;;;;;;19.25;18.25;;;;;2.89;63.14;102314.25;5060836;28;11498;-69
2022/03/08 01:09:13;;;;;;;;;16.25;13.50;;;;;2.86;62.87;102309.09;5046342;28;11570;-70
2022/03/08 01:11:41;;;;;;;;;12.50;10.00;;;;;2.81;63.16;102307.69;5074470;28;11626;-70
2022/03/08 01:14:10;;;;;;;;;17.25;15.75;;;;;2.81;63.40;102305.88;5043151;28;11570;-70
2022/03/08 01:16:37;;;;;;;;;14.50;14.50;;;;;2.64;63.00;102304.31;5062697;28;11549;-70
2022/03/08 01:19:05;;;;;;;;;14.00;12.00;;;;;2.76;63.10;102302.66;5037769;28;11524;-70
2022/03/08 01:21:34;;;;;;;;;16.50;11.75;;;;;2.72;62.36;102309.16;5055689;28;11486;-70
2022/03/08 01:24:01;;;;;;;;;21.25;18.00;;;;;2.68;62.78;102307.66;5051787;28;11523;-70
2022/03/08 01:26:28;;;;;;;;;14.75;13.50;;;;;2.68;62.84;102302.31;5026864;28;11618;-70
2022/03/08 01:28:56;;;;;;;;;9.00;7.50;;;;;2.66;62.88;102297.06;5026908;28;11429;-70
2022/03/08 01:31:23;;;;;;;;;19.00;15.00;;;;;2.62;62.70;102295.56;5033900;28;11475;-69
2022/03/08 01:33:50;;;;;;;;;21.75;18.00;;;;;2.61;62.83;102295.66;5052175;28;11522;-70
2022/03/08 01:36:17;;;;;;;;;17.50;16.00;;;;;2.68;63.14;102291.59;5031726;28;11542;-70
2022/03/08 01:38:43;;;;;;;;;23.50;19.00;;;;;2.63;63.10;102296.41;5039093;28;11507;-69
2022/03/08 01:41:10;;;;;;;;;18.00;15.75;;;;;2.65;62.89;102286.47;5064431;28;11520;-69
2022/03/08 01:43:36;;;;;;;;;15.25;14.00;;;;;2.58;63.04;102278.00;5065101;28;11548;-69
2022/03/08 01:46:03;;;;;;;;;17.75;13.25;;;;;2.64;63.26;102287.44;5056115;28;11510;-71
2022/03/08 01:48:30;;;;;;;;;14.00;11.00;;;;;2.61;63.18;102279.63;5070592;28;11537;-69
2022/03/08 01:50:58;;;;;;;;;22.25;18.50;;;;;2.41;63.87;102278.25;5036505;28;11508;-70
2022/03/08 01:53:24;;;;;;;;;12.00;12.00;;;;;2.51;64.03;102276.72;5065575;28;12205;-69
2022/03/08 01:55:51;;;;;;;;;19.00;17.50;;;;;2.43;63.78;102276.34;5062937;28;11486;-69
2022/03/08 01:58:23;;;;;;;;;17.25;15.75;;;;;2.38;63.65;102273.13;5058066;28;11598;-69
2022/03/08 02:00:49;;;;;;;;;19.75;16.75;;;;;2.46;63.75;102268.09;5055864;28;11626;-69
2022/03/08 02:03:16;;;;;;;;;14.75;11.00;;;;;2.47;64.16;102259.13;5047777;28;11618;-70
2022/03/08 02:05:43;;;;;;;;;24.00;16.00;;;;;2.29;63.99;102261.22;5050986;28;11426;-69
2022/03/08 02:08:09;;;;;;;;;15.00;13.00;;;;;2.42;64.06;102261.25;5051188;28;11457;-72
2022/03/08 02:10:36;;;;;;;;;20.75;16.00;;;;;2.31;64.29;102264.66;5056138;28;11532;-69
2022/03/08 02:13:02;;;;;;;;;21.25;16.50;;;;;2.37;64.34;102264.25;5048146;28;12210;-70
2022/03/08 02:15:29;;;;;;;;;22.50;15.50;;;;;2.43;64.16;102271.84;5051271;28;11473;-69
2022/03/08 02:18:02;;;;;;;;;19.75;14.25;;;;;2.42;64.53;102269.28;5062194;28;11491;-71
2022/03/08 02:20:30;;;;;;;;;18.25;14.50;;;;;2.46;64.17;102260.09;5051604;28;11568;-69
2022/03/08 02:22:56;;;;;;;;;21.25;16.75;;;;;2.37;63.85;102252.69;5049244;28;11511;-71
2022/03/08 02:25:23;;;;;;;;;16.25;11.75;;;;;2.40;64.08;102258.69;5062982;28;11470;-69
2022/03/08 02:27:52;;;;;;;;;12.00;9.25;;;;;2.35;64.29;102244.78;5050516;28;11517;-70
2022/03/08 02:30:20;;;;;;;;;15.50;9.00;;;;;2.36;64.21;102250.97;5051660;28;11644;-70
2022/03/08 02:32:48;;;;;;;;;10.50;7.00;;;;;2.37;63.79;102242.88;5047289;28;11545;-70
2022/03/08 02:35:17;;;;;;;;;10.50;10.50;;;;;2.38;64.22;102241.03;5052335;28;11469;-69
2022/03/08 02:37:55;;;;;;;;;14.25;13.00;;;;;2.35;64.05;102238.59;5051757;28;11447;-69
2022/03/08 02:40:25;;;;;;;;;14.00;12.00;;;;;2.34;64.00;102229.72;5073252;28;12144;-69
2022/03/08 02:42:52;;;;;;;;;20.00;14.50;;;;;2.17;64.20;102229.94;5070181;28;12300;-69
2022/03/08 02:45:19;;;;;;;;;15.50;14.00;;;;;2.27;64.28;102227.56;5053327;28;11508;-70
2022/03/08 02:47:46;;;;;;;;;22.75;17.00;;;;;2.22;64.08;102226.97;5050684;28;11472;-70
2022/03/08 02:50:15;;;;;;;;;9.75;9.00;;;;;2.22;64.04;102226.97;5056159;28;12238;-69
2022/03/08 02:52:43;;;;;;;;;18.75;13.50;;;;;2.13;63.72;102223.97;5048848;28;11635;-70
2022/03/08 02:55:11;;;;;;;;;12.50;10.50;;;;;2.25;63.93;102216.13;5050385;28;11646;-68
2022/03/08 02:57:39;;;;;;;;;12.75;11.50;;;;;2.26;63.80;102216.00;5032828;28;11494;-69
2022/03/08 03:00:08;;;;;;;;;16.25;15.00;;;;;2.22;63.14;102218.97;5050755;28;12196;-68
2022/03/08 03:02:35;;;;;;;;;18.00;16.00;;;;;2.18;63.83;102218.31;5049626;28;11508;-70
2022/03/08 03:05:02;;;;;;;;;13.50;12.25;;;;;2.19;64.09;102217.34;5058933;28;11496;-69
2022/03/08 03:07:29;;;;;;;;;13.00;11.00;;;;;2.14;63.71;102206.97;5036879;28;11574;-68
2022/03/08 03:09:56;;;;;;;;;19.75;17.00;;;;;2.05;64.30;102209.41;5048233;28;11467;-69
2022/03/08 03:12:22;;;;;;;;;15.25;12.00;;;;;2.09;64.72;102211.75;5038266;28;11572;-68
2022/03/08 03:14:49;;;;;;;;;20.00;11.25;;;;;2.06;64.71;102211.13;5042494;28;11569;-68
2022/03/08 03:17:19;;;;;;;;;12.25;12.25;;;;;2.01;64.66;102203.41;5031376;28;11656;-69
2022/03/08 03:19:45;;;;;;;;;13.00;10.00;;;;;2.05;65.10;102204.91;5049343;28;11476;-68
2022/03/08 03:22:12;;;;;;;;;9.00;7.00;;;;;2.03;65.02;102195.28;5041151;28;11443;-69
2022/03/08 03:24:38;;;;;;;;;25.00;16.25;;;;;1.95;64.36;102198.44;5073975;28;11493;-70
2022/03/08 03:27:04;;;;;;;;;16.75;14.75;;;;;1.94;65.05;102198.53;5055686;28;11475;-69
2022/03/08 03:29:31;;;;;;;;;14.75;11.00;;;;;1.95;64.83;102185.09;5037664;28;11507;-69
2022/03/08 03:31:57;;;;;;;;;13.00;12.25;;;;;1.93;65.37;102187.00;5037158;28;11528;-69
2022/03/08 03:34:24;;;;;;;;;14.00;9.25;;;;;1.94;64.73;102194.06;5063701;28;11584;-70
2022/03/08 03:36:50;;;;;;;;;14.25;11.50;;;;;1.88;64.97;102189.13;5056032;28;11466;-69
2022/03/08 03:39:17;;;;;;;;;12.75;9.75;;;;;1.87;65.03;102195.41;5046746;28;11500;-69
2022/03/08 03:41:43;;;;;;;;;18.00;16.00;;;;;1.79;65.06;102197.75;5053569;28;11479;-69
2022/03/08 03:44:10;;;;;;;;;14.25;13.50;;;;;1.80;65.32;102202.13;5053673;28;11510;-69
2022/03/08 03:46:37;;;;;;;;;12.75;12.75;;;;;1.84;65.04;102200.97;5053610;28;11517;-69
2022/03/08 03:49:04;;;;;;;;;21.75;18.50;;;;;1.74;65.55;102200.72;5056229;28;11518;-69
2022/03/08 03:51:30;;;;;;;;;20.25;16.50;;;;;1.75;65.85;102198.91;5070156;28;11635;-71
2022/03/08 03:53:57;;;;;;;;;16.75;15.50;;;;;1.70;66.06;102200.97;5055140;28;11500;-70
2022/03/08 03:56:24;;;;;;;;;11.50;10.00;;;;;1.76;66.22;102189.94;5055595;28;11591;-69
2022/03/08 03:58:50;;;;;;;;;13.00;10.50;;;;;1.73;66.16;102195.44;5027738;28;11465;-69
2022/03/08 04:01:17;;;;;;;;;16.25;12.00;;;;;1.67;66.16;102190.50;5057675;28;11479;-70
2022/03/08 04:03:44;;;;;;;;;23.00;20.25;;;;;1.51;66.54;102196.84;5054462;28;11518;-69
2022/03/08 04:06:11;;;;;;;;;17.25;14.25;;;;;1.53;66.08;102192.25;5073377;28;11488;-69
2022/03/08 04:08:37;;;;;;;;;20.00;16.75;;;;;1.47;66.04;102184.63;5053715;28;11549;-70
2022/03/08 04:11:09;;;;;;;;;16.00;14.50;;;;;1.54;66.30;102191.31;5052738;28;11590;-71
2022/03/08 04:13:36;;;;;;;;;13.50;11.00;;;;;1.57;66.12;102195.59;5056302;28;11499;-70
2022/03/08 04:16:02;;;;;;;;;11.25;11.25;;;;;1.50;65.63;102194.28;5055334;28;11470;-70
2022/03/08 04:18:30;;;;;;;;;14.00;10.50;;;;;1.50;65.71;102192.47;5029358;28;11491;-70
2022/03/08 04:20:56;;;;;;;;;15.00;14.00;;;;;1.49;65.99;102193.41;5086963;22;11540;-68
2022/03/08 04:23:23;;;;;;;;;13.00;12.25;;;;;1.49;65.69;102181.88;5094301;28;11526;-67
2022/03/08 04:25:49;;;;;;;;;17.50;14.25;;;;;1.49;65.54;102190.75;5094677;28;11635;-68
2022/03/08 04:28:16;;;;;;;;;15.00;12.25;;;;;1.45;65.74;102175.00;5091769;28;11607;-68
2022/03/08 04:30:42;;;;;;;;;18.00;16.25;;;;;1.38;65.80;102174.53;5092245;28;11665;-68
2022/03/08 04:33:09;;;;;;;;;12.25;11.75;;;;;1.47;65.85;102173.94;5089071;28;11616;-69
2022/03/08 04:35:35;;;;;;;;;16.00;13.00;;;;;1.35;65.36;102177.41;5092473;28;11515;-69
2022/03/08 04:38:02;;;;;;;;;16.75;15.00;;;;;1.44;64.81;102176.81;5088174;28;11650;-68
2022/03/08 04:40:28;;;;;;;;;19.75;15.00;;;;;1.41;64.67;102176.16;5090139;28;12211;-68
2022/03/08 04:42:55;;;;;;;;;12.25;11.00;;;;;1.40;64.24;102174.44;5092222;28;11526;-68
2022/03/08 04:45:22;;;;;;;;;11.00;10.00;;;;;1.40;63.99;102179.78;5092474;28;11527;-67
2022/03/08 04:47:49;;;;;;;;;18.75;14.00;;;;;1.42;64.03;102164.53;5091465;28;11608;-69
2022/03/08 04:50:16;;;;;;;;;15.25;11.50;;;;;1.47;64.05;102170.41;5090716;28;12303;-68
2022/03/08 04:52:45;;;;;;;;;12.00;11.25;;;;;1.47;63.19;102165.94;5092105;28;11487;-69
2022/03/08 04:55:14;;;;;;;;;13.25;13.00;;;;;1.46;63.00;102166.91;5124324;27;12185;-70
2022/03/08 04:57:40;;;;;;;;;21.75;17.75;;;;;1.41;63.10;102165.47;5087558;28;11543;-69
2022/03/08 05:00:13;;;;;;;;;16.75;9.75;;;;;1.46;62.74;102166.03;5091780;28;11683;-69
2022/03/08 05:02:41;;;;;;;;;16.50;15.00;;;;;1.52;62.22;102166.53;5090398;28;11581;-68
2022/03/08 05:05:10;;;;;;;;;14.75;14.75;;;;;1.51;61.72;102166.63;5090559;28;11613;-69
2022/03/08 05:07:38;;;;;;;;;16.75;11.75;;;;;1.50;61.66;102171.09;5089904;28;11540;-68
2022/03/08 05:10:07;;;;;;;;;14.00;12.00;;;;;1.51;61.19;102163.97;5091174;28;11659;-68
2022/03/08 05:12:35;;;;;;;;;10.00;9.00;;;;;1.44;61.63;102166.13;5091613;28;11642;-68
2022/03/08 05:15:03;;;;;;;;;18.50;15.50;;;;;1.50;61.30;102159.56;5091682;28;11518;-68
2022/03/08 05:17:30;;;;;;;;;14.75;14.50;;;;;1.41;61.32;102163.66;5084181;28;11570;-68
2022/03/08 05:19:57;;;;;;;;;18.75;16.00;;;;;1.48;61.13;102159.66;5091349;28;12133;-68
2022/03/08 05:22:23;;;;;;;;;17.00;15.00;;;;;1.46;60.80;102160.69;5091497;28;12245;-68
2022/03/08 05:24:49;;;;;;;;;14.25;14.00;;;;;1.32;61.52;102156.25;5090378;28;11516;-69
2022/03/08 05:27:16;;;;;;;;;13.50;10.50;;;;;1.43;61.52;102153.75;5088904;28;11646;-69
2022/03/08 05:29:42;;;;;;;;;16.00;15.50;;;;;1.33;61.47;102152.63;5091373;28;11635;-69
2022/03/08 05:32:09;;;;;;;;;14.50;10.25;;;;;1.38;61.55;102141.66;5091212;28;11648;-68
2022/03/08 05:34:35;;;;;;;;;12.25;11.50;;;;;1.45;61.14;102145.66;5091250;28;11613;-69
2022/03/08 05:37:02;;;;;;;;;15.25;8.50;;;;;1.43;61.64;102143.09;5087958;28;11528;-69
2022/03/08 05:39:29;;;;;;;;;9.00;9.00;;;;;1.39;61.56;102146.91;5086948;28;11635;-68
2022/03/08 05:41:55;;;;;;;;;12.00;10.50;;;;;1.39;61.97;102143.38;5091035;28;11493;-68
2022/03/08 05:44:22;;;;;;;;;11.75;10.75;;;;;1.41;61.84;102141.47;5090480;28;11525;-70
2022/03/08 05:46:49;;;;;;;;;13.00;11.00;;;;;1.39;61.64;102144.22;5091248;28;11500;-69
2022/03/08 05:49:17;;;;;;;;;19.25;12.25;;;;;1.40;61.60;102140.59;5090337;28;11482;-68
2022/03/08 05:51:43;;;;;;;;;14.50;13.75;;;;;1.23;61.62;102146.16;5090412;28;11545;-68
2022/03/08 05:54:10;;;;;;;;;17.50;14.25;;;;;1.28;61.57;102143.22;5089135;28;11513;-69
2022/03/08 05:56:36;;;;;;;;;9.50;9.00;;;;;1.23;61.64;102144.34;5091293;28;11633;-70
2022/03/08 05:59:02;;;;;;;;;15.50;13.00;;;;;1.27;61.27;102150.38;5089473;28;11494;-70
2022/03/08 06:01:29;;;;;;;;;11.00;10.00;;;;;1.29;61.73;102152.94;5087827;28;11518;-68
2022/03/08 06:03:56;;;;;;;;;17.50;14.50;;;;;1.29;61.37;102160.94;5090692;28;11577;-68
2022/03/08 06:06:23;;;;;;;;;16.00;14.00;;;;;1.23;61.30;102155.00;5090932;28;12325;-68
2022/03/08 06:08:49;;;;;;;;;11.00;9.50;;;;;1.29;61.78;102158.28;5089334;28;11497;-68
2022/03/08 06:11:16;;;;;;;;;9.25;9.25;;;;;1.28;61.86;102153.88;5087523;28;11623;-68
2022/03/08 06:13:42;;;;;;;;;17.25;12.50;;;;;1.23;61.79;102155.00;5090223;28;11529;-69
2022/03/08 06:16:09;;;;;;;;;12.00;12.00;;;;;1.26;62.13;102154.00;5090693;28;11653;-69
2022/03/08 06:18:36;;;;;;;;;17.25;13.75;;;;;1.25;61.56;102160.28;5090506;28;11504;-68
2022/03/08 06:21:02;;;;;;;;;9.75;8.25;;;;;1.21;62.06;102158.72;5087630;28;11667;-68
2022/03/08 06:23:29;;;;;;;;;19.25;15.25;;;;;1.19;62.12;102158.81;5089428;28;12616;-69
2022/03/08 06:25:55;;;;;;;;;16.00;12.00;;;;;1.22;62.35;102155.09;5090345;28;11616;-68
2022/03/08 06:28:22;;;;;;;;;13.50;12.25;;;;;1.18;62.01;102153.59;5089794;28;11482;-69
2022/03/08 06:30:50;;;;;;;;;10.00;9.25;;;;;1.18;62.44;102154.44;5089318;28;11628;-69
2022/03/08 06:33:16;;;;;;;;;11.00;11.00;;;;;1.22;62.56;102157.78;5090388;28;11513;-69
2022/03/08 06:35:43;;;;;;;;;14.50;13.00;;;;;1.44;62.10;102151.94;5089211;28;11609;-68
2022/03/08 06:38:09;;;;;;;;;17.50;14.00;;;;;2.24;59.68;102153.81;5089501;28;11688;-68
2022/03/08 06:40:35;;;;;;;;;11.75;9.25;;;;;2.82;58.54;102154.31;5086355;28;11525;-68
2022/03/08 06:43:02;;;;;;;;;16.25;12.00;;;;;3.79;54.68;102154.47;5088233;28;11494;-66
2022/03/08 06:45:28;;;;;;;;;14.00;10.50;;;;;4.15;52.33;102154.41;5090327;28;12199;-67
2022/03/08 06:47:55;;;;;;;;;10.00;10.00;;;;;3.30;54.26;102152.66;5088634;28;11608;-71
2022/03/08 06:50:21;;;;;;;;;12.25;11.75;;;;;3.21;55.17;102147.97;5073382;28;11620;-69
2022/03/08 06:52:49;;;;;;;;;17.50;16.00;;;;;3.23;55.12;102149.59;5089001;28;12348;-67
2022/03/08 06:55:15;;;;;;;;;10.00;10.00;;;;;3.55;53.86;102149.09;5080389;28;11605;-67
2022/03/08 06:57:42;;;;;;;;;17.25;14.00;;;;;4.79;51.32;102146.81;5093612;28;12357;-66
2022/03/08 07:00:09;;;;;;;;;16.00;14.00;;;;;5.54;48.60;102141.69;5087240;28;11654;-67
2022/03/08 07:02:36;;;;;;;;;14.50;12.00;;;;;5.17;48.34;102141.09;5081505;28;11534;-68
2022/03/08 07:05:03;;;;;;;;;14.50;12.00;;;;;5.35;48.59;102141.47;5092976;28;11496;-68
2022/03/08 07:07:30;;;;;;;;;16.50;13.00;;;;;5.19;48.81;102140.97;5094547;28;11448;-68
2022/03/08 07:09:57;;;;;;;;;13.75;13.75;;;;;5.48;47.81;102146.72;5094210;28;11627;-68
2022/03/08 07:12:24;;;;;;;;;16.75;12.50;;;;;6.29;58.95;102140.91;5093832;28;11434;-63
2022/03/08 07:14:50;;;;;;;;;9.75;9.50;;;;;5.30;48.35;102148.19;5093005;28;11570;-69
2022/03/08 07:17:17;;;;;;;;;10.00;10.00;;;;;5.61;46.61;102149.25;5091706;28;11508;-68
2022/03/08 07:19:43;;;;;;;;;11.75;11.75;;;;;5.35;47.00;102152.22;5093808;28;11412;-68
2022/03/08 07:22:10;;;;;;;;;19.75;16.50;;;;;4.83;47.99;102136.69;5091069;28;11460;-68
2022/03/08 07:24:36;;;;;;;;;12.50;11.50;;;;;4.74;48.00;102148.16;5094200;28;11575;-68
2022/03/08 07:27:03;;;;;;;;;14.75;13.50;;;;;4.30;49.88;102147.03;5094045;28;11548;-69
2022/03/08 07:29:29;;;;;;;;;14.75;13.50;;;;;4.64;49.67;102145.31;5093000;28;12282;-69
2022/03/08 07:31:56;;;;;;;;;21.00;15.75;;;;;4.54;49.32;102147.84;5089618;28;11626;-68
2022/03/08 07:34:22;;;;;;;;;15.00;13.50;;;;;4.05;49.81;102157.91;5093465;28;11601;-67
2022/03/08 07:36:48;;;;;;;;;18.25;16.00;;;;;4.08;50.63;102142.44;5084661;28;11445;-68
2022/03/08 07:39:15;;;;;;;;;12.00;9.50;;;;;4.07;50.24;102151.44;5093331;28;11586;-68
2022/03/08 07:41:42;;;;;;;;;19.75;15.75;;;;;4.24;49.66;102153.72;5088493;28;11436;-67
2022/03/08 07:44:08;;;;;;;;;19.50;15.75;;;;;4.04;50.13;102159.72;5089319;28;11665;-68
2022/03/08 07:46:35;;;;;;;;;19.00;15.50;;;;;4.01;50.78;102151.91;5092358;28;11464;-68
2022/03/08 07:49:02;;;;;;;;;14.75;14.25;;;;;4.22;50.68;102150.31;5093363;28;11492;-67
2022/03/08 07:51:46;;;;;;;;;13.50;11.75;;;;;4.16;50.41;102160.63;5082230;28;11671;-68
2022/03/08 07:54:13;;;;;;;;;12.00;12.00;;;;;4.25;50.03;102154.59;5088857;28;12219;-68
2022/03/08 07:56:40;;;;;;;;;11.25;8.00;;;;;4.33;49.26;102155.69;5085520;28;11472;-67
2022/03/08 07:59:06;;;;;;;;;15.50;10.50;;;;;4.58;48.96;102156.50;5076455;28;11540;-68
2022/03/08 08:01:34;;;;;;;;;15.00;14.75;;;;;4.73;48.68;102154.50;5077371;28;11476;-69
2022/03/08 08:04:00;;;;;;;;;11.25;11.25;;;;;4.70;48.38;102160.06;5083055;28;11452;-68
2022/03/08 08:06:27;;;;;;;;;13.00;12.00;;;;;4.98;47.99;102156.13;5088979;28;11476;-68
2022/03/08 08:08:53;;;;;;;;;18.25;16.00;;;;;4.87;47.81;102149.75;5088144;28;11631;-68
2022/03/08 08:11:20;;;;;;;;;15.00;13.00;;;;;4.78;48.06;102155.84;5086926;28;11640;-69
2022/03/08 08:13:48;;;;;;;;;16.50;13.00;;;;;5.02;48.31;102153.06;5090975;28;11605;-68
2022/03/08 08:16:16;;;;;;;;;20.00;16.25;;;;;5.07;47.57;102153.56;5081334;28;12178;-69
2022/03/08 08:18:43;;;;;;;;;18.00;15.75;;;;;5.38;46.96;102157.31;5078071;28;11492;-69
2022/03/08 08:21:10;;;;;;;;;12.75;10.75;;;;;5.48;46.73;102161.00;5080572;28;11640;-68
2022/03/08 08:23:37;;;;;;;;;20.50;19.25;;;;;5.65;46.04;102148.88;5082557;28;12342;-70
2022/03/08 08:26:03;;;;;;;;;17.75;16.50;;;;;6.05;45.71;102146.50;5074057;28;11607;-69
2022/03/08 08:28:30;;;;;;;;;14.00;12.50;;;;;6.60;44.85;102144.50;5082889;28;11698;-68
2022/03/08 08:30:58;;;;;;;;;23.25;19.00;;;;;6.50;43.90;102157.06;5085381;28;11468;-68
2022/03/08 08:33:26;;;;;;;;;15.75;13.00;;;;;6.66;44.06;102149.38;5088224;28;11446;-68
2022/03/08 08:35:53;;;;;;;;;20.75;18.00;;;;;6.75;43.79;102140.53;5088950;28;11544;-69
2022/03/08 08:38:19;;;;;;;;;12.50;12.00;;;;;6.78;43.34;102144.78;5087342;28;11562;-70
2022/03/08 08:40:46;;;;;;;;;16.00;15.75;;;;;7.05;42.62;102145.06;5090154;28;11598;-67
2022/03/08 08:43:12;;;;;;;;;13.50;13.00;;;;;7.16;42.20;102141.44;5091867;28;11471;-67
2022/03/08 08:45:39;;;;;;;;;19.00;18.00;;;;;7.09;42.18;102159.13;5089730;28;11530;-66
2022/03/08 08:48:07;;;;;;;;;14.50;11.00;;;;;6.93;42.43;102138.06;5090123;28;11457;-67
2022/03/08 08:50:34;;;;;;;;;12.00;12.00;;;;;7.25;41.81;102129.00;5081955;28;11468;-68
2022/03/08 08:53:01;;;;;;;;;17.25;11.75;;;;;7.52;41.20;102134.63;5072947;28;11462;-67
2022/03/08 08:55:27;;;;;;;;;17.00;14.00;;;;;7.56;40.99;102130.66;5079911;28;11561;-69
2022/03/08 08:57:54;;;;;;;;;19.50;14.50;;;;;7.74;40.71;102130.88;5079298;28;11485;-68
2022/03/08 09:00:20;;;;;;;;;13.00;13.00;;;;;7.92;40.73;102118.38;5076115;28;11482;-68
2022/03/08 09:02:48;;;;;;;;;13.75;13.00;;;;;8.19;39.65;102122.25;5091008;28;13126;-68
2022/03/08 09:05:14;;;;;;;;;11.25;10.75;;;;;8.27;39.85;102117.00;5081839;28;11557;-68
2022/03/08 09:07:41;;;;;;;;;12.00;12.00;;;;;8.27;38.99;102120.53;5074431;28;11093;-68
2022/03/08 09:10:08;;;;;;;;;14.00;11.25;;;;;8.60;38.54;102113.84;5079501;28;11119;-68
2022/03/08 09:12:34;;;;;;;;;16.50;15.00;;;;;8.60;37.90;102105.75;5075886;28;11237;-67
2022/03/08 09:15:02;;;;;;;;;9.50;9.00;;;;;8.77;37.92;102120.38;5077227;28;11248;-67
2022/03/08 09:17:29;;;;;;;;;12.50;12.50;;;;;8.64;37.40;102111.72;5077606;28;11094;-70
2022/03/08 09:19:55;;;;;;;;;16.75;16.00;;;;;8.95;37.79;102109.66;5079512;28;11106;-67
2022/03/08 09:22:22;;;;;;;;;16.25;9.75;;;;;9.02;36.49;102116.16;5080468;28;11342;-67
2022/03/08 09:24:48;;;;;;;;;14.50;13.00;;;;;9.04;36.79;102110.63;5080464;28;11140;-67
2022/03/08 09:27:16;;;;;;;;;7.00;7.00;;;;;8.69;37.52;102109.47;5081258;28;11793;-67
2022/03/08 09:29:46;;;;;;;;;12.75;9.00;;;;;8.74;37.51;102096.38;5080403;28;10825;-67
2022/03/08 09:32:12;;;;;;;;;15.50;14.00;;;;;9.05;36.06;102098.81;5078566;28;10968;-67
2022/03/08 09:34:39;;;;;;;;;16.75;16.00;;;;;8.75;36.87;102091.81;5081906;28;11660;-68
2022/03/08 09:37:07;;;;;;;;;14.75;14.75;;;;;8.99;36.50;102094.88;5075780;28;10882;-69
2022/03/08 09:39:34;;;;;;;;;15.50;15.00;;;;;9.09;36.39;102092.97;5075477;28;11133;-68
2022/03/08 09:42:02;;;;;;;;;16.25;13.50;;;;;8.86;36.60;102092.47;5079316;28;11165;-68
2022/03/08 09:44:29;;;;;;;;;16.00;14.75;;;;;8.99;36.24;102085.91;5086324;28;11219;-68
2022/03/08 09:46:55;;;;;;;;;15.50;14.00;;;;;8.66;36.94;102087.28;5086227;28;11002;-68
2022/03/08 09:49:22;;;;;;;;;14.00;10.00;;;;;8.90;36.15;102093.88;5078239;28;11195;-66
2022/03/08 09:51:52;;;;;;;;;13.00;13.00;;;;;9.05;35.57;102088.84;5078305;28;10914;-68
2022/03/08 09:54:19;;;;;;;;;12.50;12.50;;;;;9.08;35.42;102079.59;5075814;28;11058;-67
2022/03/08 09:56:46;;;;;;;;;17.00;12.75;;;;;9.29;35.84;102077.50;5080111;28;10844;-67
2022/03/08 09:59:19;;;;;;;;;11.50;9.25;;;;;9.57;35.60;102087.31;5078430;28;11654;-68
2022/03/08 10:01:47;;;;;;;;;10.00;9.00;;;;;9.59;34.86;102075.50;5076353;28;11144;-68
2022/03/08 10:04:19;;;;;;;;;10.50;7.50;;;;;9.63;34.07;102071.47;5087303;28;10799;-68
2022/03/08 10:07:08;;;;;;;;;17.75;10.00;;;;;9.39;33.73;102066.63;5087148;28;10851;-67
2022/03/08 10:09:37;;;;;;;;;13.75;10.25;;;;;9.41;33.80;102065.47;5083261;28;10855;-67
2022/03/08 10:12:15;;;;;;;;;15.00;14.25;;;;;9.35;33.96;102074.19;5086986;28;10826;-68
2022/03/08 10:14:42;;;;;;;;;13.00;10.50;;;;;9.49;34.46;102056.63;5088502;28;10879;-68
2022/03/08 10:17:29;;;;;;;;;14.50;13.25;;;;;9.60;34.44;102059.09;5088104;28;10774;-68
2022/03/08 10:19:57;;;;;;;;;9.75;7.75;;;;;9.41;33.55;102057.38;5089840;28;10892;-68
2022/03/08 10:22:31;;;;;;;;;13.25;11.50;;;;;9.39;33.27;102039.59;5095588;23;10707;-69
2022/03/08 10:25:16;;;;;;;;;13.00;10.50;;;;;9.29;33.30;102036.97;5054641;28;10788;-68
2022/03/08 10:27:45;;;;;;;;;15.50;10.25;;;;;9.33;33.46;102038.38;5068230;28;11717;-69
2022/03/08 10:30:13;;;;;;;;;12.00;10.25;;;;;9.41;34.06;102035.75;5064597;28;10678;-67
2022/03/08 10:32:59;;;;;;;;;10.00;9.75;;;;;9.75;34.08;102030.53;5058483;28;10794;-68
2022/03/08 10:35:28;;;;;;;;;10.50;8.00;;;;;9.78;33.29;102032.94;5060117;28;10684;-68
2022/03/08 10:38:02;;;;;;;;;8.50;6.00;;;;;9.79;33.08;102048.16;5058842;28;10529;-68
2022/03/08 10:40:35;;;;;;;;;18.00;13.25;;;;;9.54;32.62;102038.94;5060404;28;10495;-69
2022/03/08 10:43:04;;;;;;;;;13.00;11.25;;;;;9.49;32.99;102046.66;5063835;28;10639;-67
2022/03/08 10:45:33;;;;;;;;;15.50;12.50;;;;;9.41;33.25;102027.63;5068141;28;10682;-68
2022/03/08 10:48:03;;;;;;;;;14.25;12.75;;;;;9.45;33.91;102029.06;5065942;28;10777;-68
2022/03/08 10:50:32;;;;;;;;;10.25;8.00;;;;;9.59;34.64;102029.53;5037420;28;10730;-67
2022/03/08 10:53:00;;;;;;;;;16.25;15.25;;;;;9.72;34.13;102017.34;5049021;28;11832;-66
2022/03/08 10:55:32;;;;;;;;;16.75;16.00;;;;;9.59;33.49;102016.00;5049449;28;10954;-67
2022/03/08 10:58:03;;;;;;;;;14.75;14.75;;;;;9.30;33.26;102014.34;5049047;28;10678;-69
2022/03/08 11:00:45;;;;;;;;;14.00;10.00;;;;;9.32;33.77;102008.78;5060666;28;10796;-68
2022/03/08 11:03:17;;;;;;;;;11.50;11.50;;;;;9.41;34.00;102008.72;5069415;28;11432;-66
2022/03/08 11:05:48;;;;;;;;;15.75;12.75;;;;;9.26;33.56;102010.25;5067907;28;10528;-66
2022/03/08 11:08:16;;;;;;;;;17.50;14.00;;;;;9.34;33.73;102001.38;5052034;28;10723;-67
2022/03/08 11:10:44;;;;;;;;;10.00;10.00;;;;;9.34;34.01;102004.94;5063269;28;10940;-68
2022/03/08 11:13:13;;;;;;;;;4.75;2.00;;;;;9.46;33.87;101995.63;5035192;28;10860;-67
2022/03/08 11:15:43;;;;;;;;;17.25;13.50;;;;;9.41;34.17;102007.88;5051667;28;11071;-67
2022/03/08 11:18:12;;;;;;;;;15.00;12.50;;;;;9.33;34.23;102003.25;5070336;28;10811;-68
2022/03/08 11:20:41;;;;;;;;;14.75;14.75;;;;;9.47;34.89;101991.91;5070562;28;10926;-68